Time;durP1;ratioP1;P1;durP2;ratioP2;P2;SDS_P1;SDS_P2;PMS_P1;PMS_P2;Temp;Humidity;BMP_temperature;BMP_pressure;BME280_temperature;BME280_humidity;BME280_pressure;Samples;Min_cycle;Max_cycle;Signal;HPM_P1;HPM_P2
2022/09/19 00:01:36;;;;;;;9.97;9.53;;;;;;;7.65;100.00;96745.03;5014691;28;20195;-72
2022/09/19 00:04:05;;;;;;;11.87;11.37;;;;;;;7.76;100.00;96726.09;5015204;28;20651;-72
2022/09/19 00:06:35;;;;;;;16.00;15.23;;;;;;;7.61;100.00;96736.03;5015392;28;20186;-72
2022/09/19 00:09:02;;;;;;;14.83;14.07;;;;;;;7.60;100.00;96737.84;5015253;28;20262;-72
2022/09/19 00:11:27;;;;;;;12.90;12.30;;;;;;;7.69;100.00;96741.03;5014781;28;20183;-72
2022/09/19 00:13:54;;;;;;;18.27;17.27;;;;;;;7.68;100.00;96735.00;4997431;28;20650;-72
2022/09/19 00:16:26;;;;;;;15.70;15.00;;;;;;;7.66;100.00;96747.44;5015046;28;20187;-72
2022/09/19 00:18:55;;;;;;;12.73;12.13;;;;;;;7.68;100.00;96753.25;5014640;28;20195;-72
2022/09/19 00:21:22;;;;;;;17.73;16.93;;;;;;;7.50;100.00;96742.72;5013990;28;20675;-71
2022/09/19 00:26:33;;;;;;;8.53;8.10;;;;;;;7.52;100.00;96757.13;5015000;28;20229;-72
2022/09/19 00:28:58;;;;;;;9.67;9.27;;;;;;;7.59;100.00;96761.50;5013744;28;20235;-72
2022/09/19 00:31:24;;;;;;;9.20;8.70;;;;;;;7.48;100.00;96755.16;5014068;28;20193;-71
2022/09/19 00:33:50;;;;;;;16.40;15.63;;;;;;;7.52;100.00;96762.34;5012326;28;20677;-71
2022/09/19 00:36:16;;;;;;;15.67;14.97;;;;;;;7.47;100.00;96750.94;5014108;28;20209;-71
2022/09/19 00:38:42;;;;;;;13.63;13.00;;;;;;;7.40;100.00;96750.19;5014635;28;20631;-72
2022/09/19 00:41:13;;;;;;;11.80;11.20;;;;;;;7.33;100.00;96760.63;5014603;28;20519;-71
2022/09/19 00:43:52;;;;;;;12.27;11.73;;;;;;;7.32;100.00;96766.84;5014739;28;20186;-71
2022/09/19 00:46:20;;;;;;;10.27;9.87;;;;;;;7.26;100.00;96761.66;5014169;28;20182;-72
2022/09/19 00:48:50;;;;;;;10.80;10.33;;;;;;;7.19;100.00;96759.06;5014684;28;20222;-71
2022/09/19 00:51:37;;;;;;;11.37;10.77;;;;;;;7.12;100.00;96768.72;5014308;28;20531;-71
2022/09/19 00:54:12;;;;;;;13.13;12.53;;;;;;;7.02;100.00;96761.31;5014339;28;20753;-71
2022/09/19 00:56:41;;;;;;;11.80;11.20;;;;;;;7.06;100.00;96772.94;5014436;28;20178;-72
2022/09/19 00:59:08;;;;;;;12.07;11.53;;;;;;;7.05;100.00;96771.34;5014030;28;20611;-71
2022/09/19 01:01:34;;;;;;;11.57;11.07;;;;;;;6.95;100.00;96773.59;5013598;28;20186;-71
2022/09/19 01:04:01;;;;;;;13.70;13.10;;;;;;;6.88;100.00;96771.97;5014038;28;20198;-72
2022/09/19 01:06:45;;;;;;;10.80;10.30;;;;;;;6.99;100.00;96777.38;5014218;28;20179;-72
2022/09/19 01:09:53;;;;;;;9.07;8.63;;;;;;;6.87;100.00;96783.41;5014308;28;20487;-71
2022/09/19 01:12:37;;;;;;;8.80;8.40;;;;;;;6.92;100.00;96787.00;5013421;28;20241;-72
2022/09/19 01:15:38;;;;;;;16.40;15.50;;;;;;;6.84;100.00;96787.22;5013679;28;20187;-72
2022/09/19 01:18:05;;;;;;;10.97;10.47;;;;;;;6.80;100.00;96783.41;4998470;28;20174;-71
2022/09/19 01:20:55;;;;;;;11.47;10.97;;;;;;;6.86;100.00;96795.63;5013250;28;20190;-71
2022/09/19 01:23:39;;;;;;;8.93;8.43;;;;;;;6.84;100.00;96786.44;5013356;28;20233;-72
2022/09/19 01:26:19;;;;;;;9.07;8.67;;;;;;;6.72;100.00;96795.84;5013719;28;20302;-71
2022/09/19 01:28:55;;;;;;;9.03;8.53;;;;;;;6.68;100.00;96791.06;5013018;28;20261;-72
2022/09/19 01:31:44;;;;;;;8.13;7.53;;;;;;;6.72;100.00;96791.44;5013226;28;20542;-72
2022/09/19 01:34:15;;;;;;;8.23;7.83;;;;;;;6.63;100.00;96784.84;5019761;28;20674;-71
2022/09/19 01:36:46;;;;;;;9.77;9.27;;;;;;;6.67;100.00;96786.03;5013868;28;20180;-71
2022/09/19 01:39:17;;;;;;;7.10;6.80;;;;;;;6.69;100.00;96784.00;5013356;28;20782;-72
2022/09/19 01:41:50;;;;;;;9.60;8.90;;;;;;;6.73;100.00;96782.63;4996043;28;20218;-72
2022/09/19 01:44:18;;;;;;;9.67;9.23;;;;;;;6.70;100.00;96788.22;5013345;28;20651;-72
2022/09/19 01:46:58;;;;;;;8.20;7.67;;;;;;;6.68;100.00;96793.66;5013487;28;20263;-71
2022/09/19 01:49:42;;;;;;;10.73;10.20;;;;;;;6.64;100.00;96795.03;5014210;28;20269;-72
2022/09/19 01:52:48;;;;;;;8.70;8.30;;;;;;;6.62;100.00;96794.47;5012921;28;20203;-71
2022/09/19 01:55:35;;;;;;;9.43;8.93;;;;;;;6.60;100.00;96809.47;4968798;28;20195;-71
2022/09/19 01:58:16;;;;;;;7.90;7.47;;;;;;;6.61;100.00;96812.88;4996065;28;20207;-71
2022/09/19 02:00:55;;;;;;;9.33;8.87;;;;;;;6.66;100.00;96811.28;5009558;28;20175;-71
2022/09/19 02:03:34;;;;;;;9.37;8.97;;;;;;;6.68;100.00;96813.69;5010316;28;20191;-71
2022/09/19 02:06:22;;;;;;;6.33;5.93;;;;;;;6.65;100.00;96811.47;5012589;28;20182;-72
2022/09/19 02:09:00;;;;;;;7.33;6.93;;;;;;;6.61;100.00;96811.09;5013200;28;20258;-71
2022/09/19 02:11:27;;;;;;;7.03;6.60;;;;;;;6.60;100.00;96811.28;5012839;28;20179;-71
2022/09/19 02:14:07;;;;;;;8.97;8.47;;;;;;;6.56;100.00;96804.88;5005917;28;20203;-71
2022/09/19 02:16:51;;;;;;;7.87;7.47;;;;;;;6.59;100.00;96814.88;5013355;28;20259;-71
2022/09/19 02:19:25;;;;;;;8.33;7.90;;;;;;;6.63;100.00;96816.09;5022183;28;20183;-71
2022/09/19 02:21:59;;;;;;;7.10;6.73;;;;;;;6.59;100.00;96807.88;5012384;28;20550;-71
2022/09/19 02:24:31;;;;;;;11.93;11.23;;;;;;;6.65;100.00;96817.50;5000471;28;20172;-71
2022/09/19 02:27:07;;;;;;;8.77;8.13;;;;;;;6.63;100.00;96816.09;5012585;28;20198;-73
2022/09/19 02:29:34;;;;;;;9.87;9.33;;;;;;;6.63;100.00;96808.28;5012331;28;20250;-71
2022/09/19 02:32:00;;;;;;;7.13;6.83;;;;;;;6.63;100.00;96808.28;5012972;28;20215;-73
2022/09/19 02:34:26;;;;;;;8.17;7.77;;;;;;;6.62;100.00;96811.88;5012600;28;20213;-71
2022/09/19 02:37:13;;;;;;;7.90;7.40;;;;;;;6.64;100.00;96810.66;5012583;28;20186;-72
2022/09/19 02:39:48;;;;;;;18.17;8.93;;;;;;;6.60;100.00;96816.47;4996119;28;20198;-71
2022/09/19 02:42:50;;;;;;;8.97;7.80;;;;;;;6.62;100.00;96817.09;5012412;28;20183;-71
2022/09/19 02:45:34;;;;;;;7.13;6.63;;;;;;;6.68;100.00;96824.13;4992102;28;20570;-72
2022/09/19 02:48:06;;;;;;;6.57;6.20;;;;;;;6.64;100.00;96818.47;5016726;28;20180;-71
2022/09/19 02:50:58;;;;;;;9.40;8.43;;;;;;;6.65;100.00;96827.09;5000652;28;20191;-71
2022/09/19 02:53:29;;;;;;;9.10;8.60;;;;;;;6.74;100.00;96812.88;5016923;28;20202;-71
2022/09/19 02:56:00;;;;;;;8.87;8.37;;;;;;;6.74;100.00;96818.09;5016446;28;20364;-72
2022/09/19 02:58:30;;;;;;;11.87;10.93;;;;;;;6.71;100.00;96823.69;5016632;28;20183;-72
2022/09/19 03:01:03;;;;;;;8.37;7.70;;;;;;;6.66;100.00;96815.69;5016379;28;20179;-72
2022/09/19 03:06:31;;;;;;;9.67;9.10;;;;;;;6.71;100.00;96815.88;5002758;28;20237;-73
2022/09/19 03:08:57;;;;;;;11.30;10.60;;;;;;;6.72;100.00;96824.50;5016408;28;20172;-73
2022/09/19 03:11:26;;;;;;;14.57;13.77;;;;;;;6.67;100.00;96819.91;5016298;28;20192;-72
2022/09/19 03:13:58;;;;;;;10.20;9.60;;;;;;;6.60;100.00;96819.09;5000694;28;20187;-72
2022/09/19 03:16:31;;;;;;;11.10;10.03;;;;;;;6.65;100.00;96829.69;5016319;28;20544;-72
2022/09/19 03:18:57;;;;;;;10.17;9.20;;;;;;;6.58;100.00;96821.88;5017357;28;20168;-74
2022/09/19 03:21:25;;;;;;;9.90;9.23;;;;;;;6.54;100.00;96822.50;5016735;28;20194;-71
2022/09/19 03:23:52;;;;;;;7.63;7.23;;;;;;;6.56;100.00;96826.50;5016897;28;20190;-72
2022/09/19 03:26:21;;;;;;;8.90;7.30;;;;;;;6.58;100.00;96823.69;5016207;28;20229;-72
2022/09/19 03:28:47;;;;;;;7.63;5.47;;;;;;;6.59;100.00;96822.69;5015684;28;20247;-72
2022/09/19 03:31:12;;;;;;;8.03;7.37;;;;;;;6.62;100.00;96830.13;5015253;28;20188;-71
2022/09/19 03:33:41;;;;;;;9.37;8.67;;;;;;;6.65;100.00;96819.28;4997721;28;20203;-71
2022/09/19 03:36:10;;;;;;;10.03;9.33;;;;;;;6.67;100.00;96825.09;5016154;28;20183;-71
2022/09/19 03:38:36;;;;;;;9.70;9.10;;;;;;;6.74;100.00;96818.09;5015495;28;20286;-72
2022/09/19 03:41:02;;;;;;;14.67;13.60;;;;;;;6.80;100.00;96825.09;5015530;28;20195;-72
2022/09/19 03:43:29;;;;;;;16.27;15.00;;;;;;;6.88;100.00;96827.50;5015715;28;20206;-72
2022/09/19 03:45:56;;;;;;;19.43;18.13;;;;;;;6.80;100.00;96834.72;5015613;28;20607;-72
2022/09/19 03:48:22;;;;;;;23.63;21.73;;;;;;;6.78;100.00;96840.13;5015428;28;20709;-72
2022/09/19 03:50:48;;;;;;;12.33;11.70;;;;;;;6.79;100.00;96833.94;5015711;28;20187;-72
2022/09/19 03:53:13;;;;;;;12.03;11.23;;;;;;;6.81;100.00;96837.09;5015662;28;20245;-72
2022/09/19 03:55:41;;;;;;;10.53;9.73;;;;;;;6.88;100.00;96830.09;5014435;28;20184;-72
2022/09/19 03:58:09;;;;;;;10.03;9.33;;;;;;;6.93;100.00;96837.31;5015537;28;20653;-72
2022/09/19 04:00:35;;;;;;;9.53;8.93;;;;;;;6.82;100.00;96833.50;5015632;28;20175;-72
2022/09/19 04:03:00;;;;;;;10.57;9.77;;;;;;;6.93;100.00;96840.72;5015530;28;20190;-72
2022/09/19 04:05:26;;;;;;;10.57;9.87;;;;;;;7.00;100.00;96840.72;5015348;28;20215;-71
2022/09/19 04:07:51;;;;;;;10.73;9.87;;;;;;;7.10;100.00;96843.69;4997385;28;20183;-71
2022/09/19 04:10:16;;;;;;;9.10;8.20;;;;;;;7.04;100.00;96842.72;5015166;28;20187;-72
2022/09/19 04:12:42;;;;;;;8.60;7.73;;;;;;;7.08;100.00;96846.50;5014870;28;20313;-72
2022/09/19 04:15:08;;;;;;;8.67;7.83;;;;;;;7.07;100.00;96852.75;5015065;28;20183;-72
2022/09/19 04:17:33;;;;;;;8.63;8.13;;;;;;;7.10;100.00;96854.94;5015151;28;20187;-72
2022/09/19 04:19:58;;;;;;;6.87;6.27;;;;;;;7.17;100.00;96854.91;5015493;28;20179;-71
2022/09/19 04:22:24;;;;;;;5.80;5.23;;;;;;;7.13;100.00;96866.75;5008454;28;20226;-71
2022/09/19 04:24:51;;;;;;;5.63;5.23;;;;;;;7.18;100.00;96861.75;5015111;28;20183;-71
2022/09/19 04:27:17;;;;;;;7.10;5.90;;;;;;;7.24;100.00;96858.31;5014616;28;20613;-72
2022/09/19 04:29:42;;;;;;;5.90;5.50;;;;;;;7.26;100.00;96858.09;5014389;28;20255;-72
2022/09/19 04:32:08;;;;;;;9.23;8.30;;;;;;;7.26;100.00;96863.31;5013753;28;20286;-71
2022/09/19 04:34:34;;;;;;;7.90;6.70;;;;;;;7.33;100.00;96870.13;5018843;28;20195;-71
2022/09/19 04:37:06;;;;;;;17.10;15.70;;;;;;;7.34;100.00;96874.34;5013234;28;21930;-71
2022/09/19 04:39:32;;;;;;;11.73;10.63;;;;;;;7.27;100.00;96875.34;5014670;28;20210;-71
2022/09/19 04:42:00;;;;;;;10.90;10.00;;;;;;;7.26;100.00;96877.16;5014307;28;20215;-71
2022/09/19 04:44:28;;;;;;;13.17;12.20;;;;;;;7.36;100.00;96872.31;5014549;28;20223;-71
2022/09/19 04:46:54;;;;;;;9.57;8.87;;;;;;;7.38;100.00;96870.31;5014265;28;20180;-71
2022/09/19 04:49:19;;;;;;;6.47;5.87;;;;;;;7.39;100.00;96865.91;4996898;28;20186;-71
2022/09/19 04:51:45;;;;;;;6.33;5.73;;;;;;;7.46;100.00;96866.69;5014161;28;20202;-71
2022/09/19 04:54:11;;;;;;;7.20;5.40;;;;;;;7.37;100.00;96865.31;5014492;28;20187;-71
2022/09/19 04:56:37;;;;;;;7.53;5.10;;;;;;;7.41;100.00;96876.94;5014082;28;20199;-71
2022/09/19 04:59:03;;;;;;;8.67;5.10;;;;;;;7.34;100.00;96873.53;5014438;28;20187;-71
2022/09/19 05:01:30;;;;;;;7.93;5.47;;;;;;;7.35;100.00;96881.16;5013543;28;20539;-71
2022/09/19 05:03:56;;;;;;;10.50;6.83;;;;;;;7.36;100.00;96887.97;5013738;28;20586;-71
2022/09/19 05:06:22;;;;;;;5.73;5.13;;;;;;;7.35;100.00;96872.53;5014268;28;20266;-71
2022/09/19 05:08:47;;;;;;;6.10;5.60;;;;;;;7.41;100.00;96888.16;5013793;28;20195;-71
2022/09/19 05:11:13;;;;;;;6.57;5.23;;;;;;;7.43;100.00;96893.97;5013357;28;20269;-71
2022/09/19 05:13:39;;;;;;;7.00;6.10;;;;;;;7.48;100.00;96901.97;5013450;28;20210;-71
2022/09/19 05:16:05;;;;;;;5.60;5.20;;;;;;;7.44;100.00;96902.59;5013883;28;20191;-71
2022/09/19 05:18:34;;;;;;;6.33;5.77;;;;;;;7.46;100.00;96903.22;5013852;28;20206;-71
2022/09/19 05:21:03;;;;;;;5.70;5.13;;;;;;;7.51;100.00;96908.59;4996454;28;20206;-70
2022/09/19 05:23:29;;;;;;;8.13;5.20;;;;;;;7.43;100.00;96903.59;5013964;28;20187;-70
2022/09/19 05:25:54;;;;;;;7.40;4.90;;;;;;;7.59;100.00;96910.97;5013644;28;20651;-70
2022/09/19 05:28:23;;;;;;;7.43;5.20;;;;;;;7.58;100.00;96914.59;5012772;28;20240;-73
2022/09/19 05:30:55;;;;;;;5.40;4.90;;;;;;;7.67;100.00;96915.19;5013638;28;20522;-70
2022/09/19 05:33:26;;;;;;;5.33;4.80;;;;;;;7.68;100.00;96915.00;5013058;28;20601;-70
2022/09/19 05:35:56;;;;;;;4.97;4.57;;;;;;;7.66;100.00;96922.22;5013445;28;20184;-70
2022/09/19 05:38:23;;;;;;;5.60;5.10;;;;;;;7.67;100.00;96938.66;5013388;28;20190;-71
2022/09/19 05:40:55;;;;;;;8.20;7.60;;;;;;;7.70;100.00;96940.84;5012933;28;20184;-70
2022/09/19 05:43:21;;;;;;;7.30;5.47;;;;;;;7.73;100.00;96938.66;5013495;28;20253;-70
2022/09/19 05:45:47;;;;;;;9.97;7.03;;;;;;;7.84;100.00;96945.06;5013575;28;20195;-70
2022/09/19 05:48:14;;;;;;;10.17;6.80;;;;;;;7.88;100.00;96956.66;5013353;28;20202;-70
2022/09/19 05:50:43;;;;;;;10.83;7.27;;;;;;;7.83;100.00;96944.25;5012650;28;20667;-70
2022/09/19 05:55:54;;;;;;;8.00;5.17;;;;;;;7.98;100.00;96951.00;5013087;28;20229;-71
2022/09/19 05:58:20;;;;;;;8.67;5.57;;;;;;;8.14;100.00;96953.16;5013176;28;20199;-71
2022/09/19 06:00:46;;;;;;;9.53;5.23;;;;;;;8.13;100.00;96952.38;5012851;28;20191;-70
2022/09/19 06:03:16;;;;;;;7.43;6.20;;;;;;;8.19;100.00;96951.53;5013017;28;20183;-70
2022/09/19 06:05:43;;;;;;;7.00;4.67;;;;;;;8.25;100.00;96955.13;5013101;28;20213;-71
2022/09/19 06:08:09;;;;;;;5.00;4.60;;;;;;;8.19;100.00;96958.59;5013116;28;20552;-70
2022/09/19 06:10:39;;;;;;;5.37;4.97;;;;;;;8.18;100.00;96968.22;5012903;28;20179;-70
2022/09/19 06:13:05;;;;;;;7.07;6.47;;;;;;;8.19;100.00;96966.44;5012644;28;20237;-71
2022/09/19 06:15:31;;;;;;;10.33;9.13;;;;;;;8.21;100.00;96977.44;5012896;28;20531;-71
2022/09/19 06:17:58;;;;;;;13.77;10.67;;;;;;;8.30;100.00;96978.88;5012504;28;20194;-70
2022/09/19 06:20:24;;;;;;;11.00;9.80;;;;;;;8.37;100.00;96979.63;5011986;28;20242;-71
2022/09/19 06:22:50;;;;;;;12.33;9.83;;;;;;;8.49;100.00;96980.56;5010700;28;20206;-71
2022/09/19 06:25:16;;;;;;;8.80;8.10;;;;;;;8.46;100.00;96978.38;5012638;28;20187;-71
2022/09/19 06:27:45;;;;;;;6.57;5.80;;;;;;;8.52;100.00;96980.16;5012502;28;20191;-71
2022/09/19 06:30:10;;;;;;;7.07;5.63;;;;;;;8.55;100.00;96987.56;5012400;28;20697;-71
2022/09/19 06:32:38;;;;;;;6.43;5.80;;;;;;;8.59;100.00;96978.31;5011777;28;20207;-71
2022/09/19 06:35:04;;;;;;;6.50;5.90;;;;;;;8.67;100.00;96978.06;5012346;28;20207;-71
2022/09/19 06:37:30;;;;;;;9.53;5.83;;;;;;;8.74;100.00;96980.66;5012073;28;20239;-71
2022/09/19 06:39:55;;;;;;;6.97;6.30;;;;;;;8.60;100.00;96982.53;4994439;28;20904;-70
2022/09/19 06:42:21;;;;;;;9.43;6.00;;;;;;;8.77;100.00;96986.25;5012421;28;20192;-70
2022/09/19 06:44:46;;;;;;;8.97;8.13;;;;;;;8.88;100.00;96986.59;5011939;28;20199;-71
2022/09/19 06:47:12;;;;;;;10.17;9.13;;;;;;;9.07;100.00;96986.47;5011837;28;20202;-69
2022/09/19 06:49:38;;;;;;;9.63;7.57;;;;;;;9.06;100.00;96987.50;5011884;28;20187;-72
2022/09/19 06:52:03;;;;;;;14.27;8.10;;;;;;;9.08;100.00;96990.66;5011267;28;20195;-70
2022/09/19 06:54:29;;;;;;;11.60;6.77;;;;;;;9.10;100.00;96993.88;4994755;28;20269;-71
2022/09/19 06:56:54;;;;;;;8.77;6.67;;;;;;;9.10;100.00;97001.72;5012042;28;20184;-69
2022/09/19 06:59:19;;;;;;;9.23;5.40;;;;;;;9.25;100.00;97000.63;5010235;28;20199;-71
2022/09/19 07:01:45;;;;;;;4.97;4.43;;;;;;;9.14;100.00;97004.72;4993048;28;20224;-70
2022/09/19 07:04:11;;;;;;;10.83;8.93;;;;;;;9.26;100.00;97015.28;5011120;28;20188;-71
2022/09/19 07:06:37;;;;;;;10.27;6.37;;;;;;;9.29;100.00;97007.84;5011294;28;20192;-71
2022/09/19 07:09:03;;;;;;;11.57;5.57;;;;;;;9.37;100.00;97014.59;5009525;28;20190;-71
2022/09/19 07:11:29;;;;;;;7.40;4.93;;;;;;;9.53;100.00;97011.47;5006015;28;20221;-70
2022/09/19 07:13:55;;;;;;;8.30;7.20;;;;;;;9.51;100.00;97026.59;5003733;28;20666;-71
2022/09/19 07:16:20;;;;;;;10.83;9.93;;;;;;;9.40;100.00;97027.28;5011350;28;20543;-70
2022/09/19 07:18:45;;;;;;;12.47;11.30;;;;;;;9.59;100.00;97014.03;5001022;28;20215;-71
2022/09/19 07:21:11;;;;;;;9.90;9.00;;;;;;;9.58;100.00;97015.03;5000010;28;20675;-71
2022/09/19 07:23:36;;;;;;;8.47;6.87;;;;;;;9.71;100.00;97021.19;5012038;28;20195;-70
2022/09/19 07:26:03;;;;;;;10.80;7.90;;;;;;;9.72;100.00;97028.81;5011754;28;20227;-71
2022/09/19 07:28:29;;;;;;;8.27;7.57;;;;;;;9.59;100.00;97021.88;5010854;28;20199;-71
2022/09/19 07:31:00;;;;;;;11.27;10.17;;;;;;;9.65;100.00;97027.25;5012110;28;20191;-70
2022/09/19 07:33:28;;;;;;;12.53;8.20;;;;;;;9.91;100.00;97033.09;5014932;28;20294;-71
2022/09/19 07:35:54;;;;;;;10.57;6.40;;;;;;;9.76;100.00;97034.41;5014479;28;20175;-71
2022/09/19 07:38:22;;;;;;;8.50;6.30;;;;;;;9.88;100.00;97036.13;5015281;28;20270;-71
2022/09/19 07:40:47;;;;;;;6.50;5.83;;;;;;;9.84;100.00;97047.25;4997299;28;20180;-70
2022/09/19 07:43:14;;;;;;;9.93;7.10;;;;;;;9.68;100.00;97045.16;5013907;28;20182;-70
2022/09/19 07:45:44;;;;;;;8.60;7.53;;;;;;;9.79;100.00;97042.66;5014376;28;20512;-70
2022/09/19 07:48:09;;;;;;;6.77;6.03;;;;;;;10.06;100.00;97051.06;5013734;28;20673;-71
2022/09/19 07:50:35;;;;;;;6.83;6.33;;;;;;;10.17;100.00;97055.63;4996729;28;20219;-71
2022/09/19 07:53:10;;;;;;;10.93;4.70;;;;;;;10.22;100.00;97053.16;4996843;28;20218;-71
2022/09/19 07:55:35;;;;;;;9.63;4.13;;;;;;;10.02;100.00;97058.56;4993983;28;20183;-71
2022/09/19 07:58:03;;;;;;;7.77;4.93;;;;;;;10.01;100.00;97061.38;5013880;28;20245;-71
2022/09/19 08:00:30;;;;;;;7.43;4.83;;;;;;;10.09;100.00;97065.53;5014135;28;20187;-72
2022/09/19 08:02:58;;;;;;;10.50;5.87;;;;;;;10.08;100.00;97072.59;5013382;28;20195;-72
2022/09/19 08:05:24;;;;;;;13.60;5.57;;;;;;;10.43;100.00;97075.50;5014129;28;20210;-70
2022/09/19 08:07:50;;;;;;;7.70;6.07;;;;;;;10.80;100.00;97086.78;5014390;28;20183;-71
2022/09/19 08:10:15;;;;;;;8.63;6.93;;;;;;;11.41;98.39;97080.53;5013591;28;20183;-72
2022/09/19 08:12:44;;;;;;;7.73;7.03;;;;;;;10.83;97.94;97087.13;5003663;28;20313;-72
2022/09/19 08:15:15;;;;;;;12.67;11.03;;;;;;;10.85;99.38;97092.16;5014542;28;20175;-72
2022/09/19 08:17:57;;;;;;;14.40;10.50;;;;;;;10.56;100.00;97093.69;4996927;28;20183;-72
2022/09/19 08:20:22;;;;;;;11.13;9.83;;;;;;;10.79;99.95;97093.03;5012914;28;20651;-72
2022/09/19 08:22:47;;;;;;;9.33;8.43;;;;;;;10.69;99.94;97092.75;5014137;28;20191;-72
2022/09/19 08:25:14;;;;;;;12.70;7.03;;;;;;;10.49;100.00;97090.34;5013553;28;20219;-72
2022/09/19 08:27:43;;;;;;;9.10;7.73;;;;;;;10.53;100.00;97091.53;5013445;28;20191;-72
2022/09/19 08:30:09;;;;;;;11.70;10.47;;;;;;;10.52;99.97;97104.84;4995603;28;20696;-72
2022/09/19 08:32:34;;;;;;;12.30;11.10;;;;;;;10.56;100.00;97092.91;5010997;28;20245;-72
2022/09/19 08:35:00;;;;;;;14.07;10.63;;;;;;;10.39;100.00;97105.78;5012970;28;20183;-72
2022/09/19 08:37:25;;;;;;;10.07;9.17;;;;;;;10.58;100.00;97103.97;5013300;28;20187;-72
2022/09/19 08:40:32;;;;;;;24.80;22.93;;;;;;;10.65;99.71;97105.47;5013717;28;20179;-70
2022/09/19 08:42:51;;;;;;;11.27;9.10;;;;;;;10.65;99.43;97109.91;4998661;28;20198;-70
2022/09/19 08:45:50;;;;;;;10.60;9.67;;;;;;;11.00;98.26;97108.31;5012687;28;20624;-71
2022/09/19 08:48:24;;;;;;;8.40;5.60;;;;;;;10.89;97.92;97114.28;5008720;28;20206;-71
2022/09/19 08:51:06;;;;;;;5.83;5.30;;;;;;;11.33;96.07;97114.94;5008478;28;20167;-73
2022/09/19 08:53:37;;;;;;;9.73;8.40;;;;;;;11.30;95.99;97123.28;5007293;28;20196;-71
2022/09/19 08:56:04;;;;;;;23.20;21.60;;;;;;;11.65;93.36;97114.47;5012677;28;20544;-72
2022/09/19 08:58:34;;;;;;;39.73;37.23;;;;;;;11.46;93.35;97120.81;5012807;28;20188;-71
2022/09/19 09:01:03;;;;;;;49.77;46.53;;;;;;;11.52;93.69;97134.88;5012279;28;20230;-71
2022/09/19 09:03:45;;;;;;;46.83;43.70;;;;;;;11.65;92.43;97134.66;5012678;28;20191;-71
2022/09/19 09:06:38;;;;;;;57.83;53.97;;;;;;;11.43;94.30;97136.19;5012773;28;20182;-71
2022/09/19 09:09:06;;;;;;;67.40;62.87;;;;;;;11.52;94.02;97137.50;5012901;28;20267;-71
2022/09/19 09:11:53;;;;;;;349.53;327.23;;;;;;;11.20;95.95;97127.22;5013144;28;20175;-71
2022/09/19 09:14:39;;;;;;;114.07;106.97;;;;;;;11.46;93.81;97131.31;5011688;28;20175;-71
2022/09/19 09:17:19;;;;;;;62.10;58.20;;;;;;;11.20;94.17;97134.31;5006945;28;20183;-71
2022/09/19 09:19:59;;;;;;;60.93;56.97;;;;;;;11.05;95.71;97136.50;5012383;28;20194;-71
2022/09/19 09:22:48;;;;;;;42.87;40.20;;;;;;;11.00;96.20;97136.34;5012561;28;20183;-72
2022/09/19 09:25:18;;;;;;;20.83;19.30;;;;;;;11.39;94.38;97138.47;5012296;28;20190;-72
2022/09/19 09:28:11;;;;;;;23.97;22.27;;;;;;;11.32;93.96;97137.75;5012572;28;20175;-71
2022/09/19 09:30:49;;;;;;;25.93;24.23;;;;;;;11.35;93.98;97137.31;4960512;28;20224;-71
2022/09/19 09:33:21;;;;;;;57.00;53.50;;;;;;;11.61;90.95;97134.31;4991983;28;20299;-72
2022/09/19 09:35:59;;;;;;;33.90;31.80;;;;;;;11.53;90.04;97137.28;4992771;28;20192;-72
2022/09/19 09:38:34;;;;;;;22.60;20.67;;;;;;;11.36;90.27;97133.69;4993129;28;20529;-72
2022/09/19 09:41:45;;;;;;;14.80;13.67;;;;;;;11.20;90.93;97137.69;4992700;28;20214;-71
2022/09/19 09:44:13;;;;;;;22.37;20.63;;;;;;;11.17;91.18;97140.78;4993033;28;20186;-71
2022/09/19 09:46:54;;;;;;;15.67;14.13;;;;;;;11.61;89.74;97147.44;4992603;28;20210;-71
2022/09/19 09:49:28;;;;;;;15.97;14.73;;;;;;;11.71;89.65;97143.47;4992753;28;20192;-73
2022/09/19 09:51:59;;;;;;;15.60;14.37;;;;;;;11.89;87.40;97135.56;4992594;28;20206;-72
2022/09/19 09:57:45;;;;;;;19.73;18.43;;;;;;;11.58;88.68;97142.66;4992375;28;20238;-74
2022/09/19 10:03:36;;;;;;;30.60;28.57;;;;;;;11.60;88.18;97150.28;4992515;28;20207;-72
2022/09/19 10:06:11;;;;;;;16.17;14.73;;;;;;;11.58;89.22;97144.50;4992892;28;20262;-72
2022/09/19 10:08:45;;;;;;;12.00;9.00;;;;;;;11.58;90.38;97147.13;4991810;28;20596;-71
2022/09/19 10:11:39;;;;;;;13.77;12.83;;;;;;;11.54;89.21;97148.56;4978064;28;20184;-73
2022/09/19 10:14:18;;;;;;;12.33;11.13;;;;;;;11.93;88.29;97145.38;4992159;28;20255;-72
2022/09/19 10:16:46;;;;;;;26.97;24.87;;;;;;;11.96;86.79;97137.06;4992336;28;20168;-72
2022/09/19 10:19:26;;;;;;;84.17;79.40;;;;;;;11.81;86.76;97133.28;4977821;28;20523;-70
2022/09/19 10:21:52;;;;;;;14.20;12.87;;;;;;;12.08;84.65;97139.72;4991127;28;20172;-69
2022/09/19 10:24:43;;;;;;;8.77;8.03;;;;;;;11.95;83.59;97140.72;4991773;28;20188;-69
2022/09/19 10:27:31;;;;;;;7.03;6.40;;;;;;;11.83;85.95;97145.13;4992096;28;20187;-71
2022/09/19 10:30:12;;;;;;;13.63;12.47;;;;;;;12.45;82.94;97146.34;5005772;28;20239;-71
2022/09/19 10:32:38;;;;;;;11.57;10.57;;;;;;;12.53;82.29;97144.41;5006714;28;20211;-69
2022/09/19 10:35:26;;;;;;;14.27;12.73;;;;;;;13.09;80.03;97146.38;5009077;28;20209;-68
2022/09/19 10:37:52;;;;;;;12.93;11.97;;;;;;;13.30;78.59;97140.50;5011868;28;20186;-71
2022/09/19 10:40:19;;;;;;;37.33;35.30;;;;;;;12.82;79.21;97141.59;5011536;28;20197;-70
2022/09/19 10:42:47;;;;;;;33.37;31.20;;;;;;;13.13;78.33;97144.91;4993966;28;20268;-69
2022/09/19 10:45:35;;;;;;;44.60;42.03;;;;;;;13.19;77.99;97138.72;5011963;28;20263;-70
2022/09/19 10:48:09;;;;;;;38.70;36.20;;;;;;;13.42;77.51;97143.09;5011455;28;20187;-69
2022/09/19 10:50:42;;;;;;;41.60;38.73;;;;;;;13.15;77.85;97142.84;5011523;28;20179;-69
2022/09/19 10:53:17;;;;;;;22.60;21.13;;;;;;;13.36;75.87;97136.13;5011820;28;20225;-69
2022/09/19 10:55:43;;;;;;;15.60;14.63;;;;;;;12.98;76.85;97136.69;5008036;28;20167;-70
2022/09/19 10:58:16;;;;;;;34.57;32.47;;;;;;;13.01;78.42;97141.47;5011880;28;20194;-70
2022/09/19 11:00:55;;;;;;;49.47;46.13;;;;;;;13.28;77.79;97135.47;5011651;28;20528;-70
2022/09/19 11:03:25;;;;;;;33.60;31.47;;;;;;;13.17;78.33;97136.28;5011641;28;20191;-69
2022/09/19 11:06:13;;;;;;;53.57;50.37;;;;;;;13.42;77.89;97135.19;5013372;28;20253;-70
2022/09/19 11:08:46;;;;;;;42.70;40.00;;;;;;;13.59;77.00;97143.94;5015044;28;20211;-73
2022/09/19 11:11:48;;;;;;;27.23;25.23;;;;;;;13.64;76.01;97147.44;5015464;28;20176;-71
2022/09/19 11:14:32;;;;;;;36.43;33.30;;;;;;;12.86;79.59;97140.13;4998780;28;20202;-71
2022/09/19 11:17:16;;;;;;;52.53;49.53;;;;;;;13.25;79.04;97149.09;5015120;28;20258;-72
2022/09/19 11:19:48;;;;;;;25.53;23.83;;;;;;;13.18;79.18;97150.25;5014456;28;20196;-73
2022/09/19 11:22:58;;;;;;;24.07;22.43;;;;;;;13.38;79.25;97147.19;5015209;28;20533;-72
2022/09/19 11:25:38;;;;;;;30.13;28.27;;;;;;;13.42;79.19;97146.53;5015105;28;20206;-70
2022/09/19 11:28:17;;;;;;;33.53;31.60;;;;;;;13.21;79.66;97147.16;5014595;28;20663;-72
2022/09/19 11:31:06;;;;;;;53.57;50.30;;;;;;;12.93;80.73;97145.25;4993053;28;20273;-74
2022/09/19 11:33:41;;;;;;;51.43;48.53;;;;;;;12.74;80.33;97149.06;4991631;28;20232;-70
2022/09/19 11:36:20;;;;;;;104.83;98.97;;;;;;;12.49;81.57;97146.69;4977708;28;20214;-70
2022/09/19 11:39:03;;;;;;;65.17;61.13;;;;;;;12.42;82.06;97149.44;4991763;28;20226;-70
2022/09/19 11:42:06;;;;;;;115.20;104.83;;;;;;;12.69;81.29;97148.97;4982207;28;20173;-69
2022/09/19 11:44:54;;;;;;;28.37;25.93;;;;;;;12.69;82.06;97144.50;4993707;28;20237;-69
2022/09/19 11:47:50;;;;;;;9.43;7.87;;;;;;;12.50;82.79;97143.03;4987809;28;20623;-70
2022/09/19 11:50:48;;;;;;;24.63;23.03;;;;;;;12.33;85.29;97147.38;4966596;28;20208;-69
2022/09/19 11:53:31;;;;;;;11.50;10.70;;;;;;;12.56;85.99;97147.38;4989711;28;20250;-70
2022/09/19 11:56:24;;;;;;;17.03;16.13;;;;;;;12.90;83.87;97148.34;4994024;28;20168;-71
2022/09/19 11:59:07;;;;;;;18.20;17.03;;;;;;;12.93;82.33;97139.22;4992089;28;20215;-71
2022/09/19 12:02:20;;;;;;;11.83;10.97;;;;;;;12.72;82.26;97148.50;4987925;28;20612;-69
2022/09/19 12:05:17;;;;;;;11.10;10.23;;;;;;;12.75;82.72;97137.53;4990957;28;20184;-69